Time;durP1;ratioP1;P1;durP2;ratioP2;P2;SDS_P1;SDS_P2;PMS_P1;PMS_P2;Temp;Humidity;BMP_temperature;BMP_pressure;BME280_temperature;BME280_humidity;BME280_pressure;Samples;Min_cycle;Max_cycle;Signal;HPM_P1;HPM_P2
2023/04/24 00:01:01;;;;;;;24.20;19.00;;;;;;;10.21;81.48;98069.98;109522;1250;59286;-71
2023/04/24 00:03:28;;;;;;;21.50;16.60;;;;;;;10.19;81.45;98068.36;109336;1251;58996;-71
2023/04/24 00:05:55;;;;;;;21.30;17.70;;;;;;;10.19;81.26;98064.48;109559;1251;66097;-71
2023/04/24 00:08:23;;;;;;;29.30;19.30;;;;;;;10.23;81.06;98060.05;109636;1251;60382;-72
2023/04/24 00:10:50;;;;;;;21.60;17.70;;;;;;;10.28;80.50;98056.98;109600;1251;64069;-72
2023/04/24 00:13:17;;;;;;;20.70;16.00;;;;;;;10.36;79.92;98055.30;109503;1251;58961;-72
2023/04/24 00:15:43;;;;;;;20.20;16.00;;;;;;;10.43;79.32;98052.96;109265;1250;59041;-72
2023/04/24 00:18:10;;;;;;;16.80;13.20;;;;;;;10.47;78.93;98052.98;109559;1251;67115;-72
2023/04/24 00:20:37;;;;;;;21.20;16.40;;;;;;;10.53;78.52;98052.88;109271;1251;59139;-70
2023/04/24 00:23:03;;;;;;;17.10;13.30;;;;;;;10.55;78.48;98051.45;109490;1251;64054;-72
2023/04/24 00:25:30;;;;;;;17.10;14.20;;;;;;;10.54;77.79;98049.23;109603;1250;59020;-71
2023/04/24 00:27:57;;;;;;;16.10;12.70;;;;;;;10.55;77.55;98040.94;109569;1251;58936;-71
2023/04/24 00:30:23;;;;;;;16.30;12.70;;;;;;;10.58;77.36;98037.54;109592;1250;64803;-71
2023/04/24 00:32:50;;;;;;;18.10;14.00;;;;;;;10.61;77.22;98035.70;109569;1255;60164;-71
2023/04/24 00:35:16;;;;;;;18.70;13.20;;;;;;;10.62;77.01;98032.55;109588;1251;59028;-71
2023/04/24 00:37:43;;;;;;;16.00;14.30;;;;;;;10.63;76.70;98030.73;109575;1251;59031;-71
2023/04/24 00:40:10;;;;;;;19.70;14.80;;;;;;;10.63;76.61;98028.45;109585;1251;59132;-71
2023/04/24 00:42:36;;;;;;;16.40;13.70;;;;;;;10.61;76.31;98022.41;109354;1251;66021;-71
2023/04/24 00:45:04;;;;;;;15.30;13.70;;;;;;;10.61;76.28;98020.27;109277;1251;59304;-71
2023/04/24 00:47:32;;;;;;;17.10;14.10;;;;;;;10.60;76.12;98017.45;109034;1251;62842;-71
2023/04/24 00:50:05;;;;;;;19.20;13.90;;;;;;;10.59;76.17;98015.26;109583;1250;59000;-71
2023/04/24 00:52:32;;;;;;;18.10;15.40;;;;;;;10.58;76.33;98013.90;109543;1250;58944;-71
2023/04/24 00:54:59;;;;;;;16.30;14.30;;;;;;;10.58;76.26;98005.78;109593;1251;64456;-71
2023/04/24 00:57:26;;;;;;;15.70;14.00;;;;;;;10.57;76.28;98007.45;109573;1251;60119;-71
2023/04/24 00:59:53;;;;;;;16.70;14.90;;;;;;;10.54;76.48;98004.80;109547;1251;64044;-71
2023/04/24 01:02:22;;;;;;;17.60;13.90;;;;;;;10.50;76.78;98001.40;109531;1251;58957;-72
2023/04/24 01:04:50;;;;;;;20.30;16.40;;;;;;;10.44;76.86;98001.23;109394;1251;59047;-72
2023/04/24 01:07:20;;;;;;;19.70;15.90;;;;;;;10.42;77.15;98001.36;109549;1250;66487;-72
2023/04/24 01:09:48;;;;;;;16.90;15.10;;;;;;;10.43;77.40;98001.34;109613;1251;60147;-71
2023/04/24 01:12:15;;;;;;;17.40;15.60;;;;;;;10.39;77.44;97997.38;109391;1251;63107;-71
2023/04/24 01:14:42;;;;;;;18.80;15.50;;;;;;;10.35;77.74;97994.88;109486;1251;59263;-71
2023/04/24 01:17:09;;;;;;;17.40;15.60;;;;;;;10.31;77.91;97991.08;109594;1251;58881;-71
2023/04/24 01:19:35;;;;;;;19.20;16.80;;;;;;;10.26;77.96;97993.99;109557;1251;66162;-71
2023/04/24 01:22:03;;;;;;;20.00;16.10;;;;;;;10.19;78.03;97992.90;109576;1252;59156;-71
2023/04/24 01:24:30;;;;;;;17.10;15.10;;;;;;;10.17;78.54;97991.70;109507;1251;62833;-71
2023/04/24 01:26:56;;;;;;;16.90;15.20;;;;;;;10.17;78.66;97989.22;109585;1251;58962;-71
2023/04/24 01:29:23;;;;;;;18.20;15.30;;;;;;;10.14;78.75;97983.40;109553;1251;59810;-71
2023/04/24 01:31:50;;;;;;;19.30;15.90;;;;;;;10.09;78.99;97980.99;109589;1251;66056;-71
2023/04/24 01:34:17;;;;;;;18.80;15.50;;;;;;;10.04;79.05;97979.60;109539;1251;60138;-71
2023/04/24 01:36:45;;;;;;;19.30;15.60;;;;;;;9.99;79.15;97975.92;109553;1251;64072;-71
2023/04/24 01:39:12;;;;;;;17.60;15.20;;;;;;;9.95;79.40;97974.65;109504;1251;59165;-72
2023/04/24 01:41:39;;;;;;;21.10;16.20;;;;;;;9.92;79.45;97969.36;109569;1251;58863;-72
2023/04/24 01:44:05;;;;;;;20.00;15.40;;;;;;;9.87;79.45;97968.36;109530;1251;66052;-71
2023/04/24 01:46:34;;;;;;;21.20;16.10;;;;;;;9.81;79.63;97966.85;109630;1250;60625;-71
2023/04/24 01:49:01;;;;;;;18.30;15.90;;;;;;;9.78;79.86;97963.26;109534;1251;64055;-71
2023/04/24 01:51:28;;;;;;;20.00;16.50;;;;;;;9.75;80.19;97965.41;109546;1251;59020;-72
2023/04/24 01:53:55;;;;;;;20.50;16.40;;;;;;;9.74;80.76;97962.17;109564;1251;59152;-71
2023/04/24 01:56:22;;;;;;;19.20;16.40;;;;;;;9.70;81.34;97961.03;109369;1256;65001;-71
2023/04/24 01:58:50;;;;;;;19.90;17.10;;;;;;;9.65;81.48;97958.54;109591;1251;59211;-71
2023/04/24 02:01:20;;;;;;;19.80;16.40;;;;;;;9.63;82.04;97956.39;109602;1251;62861;-71
2023/04/24 02:03:47;;;;;;;20.00;17.10;;;;;;;9.64;82.64;97956.21;109522;1256;58979;-72
2023/04/24 02:06:14;;;;;;;19.00;16.90;;;;;;;9.65;82.97;97953.81;109554;1252;59009;-71
2023/04/24 02:08:41;;;;;;;22.90;17.80;;;;;;;9.66;83.17;97955.69;109569;1251;65827;-71
2023/04/24 02:11:10;;;;;;;20.90;17.30;;;;;;;9.64;83.35;97951.94;109279;1250;59054;-71
2023/04/24 02:13:37;;;;;;;19.00;16.60;;;;;;;9.61;83.58;97949.46;109600;1251;64223;-71
2023/04/24 02:16:03;;;;;;;18.50;16.60;;;;;;;9.58;83.72;97946.87;109579;1250;59291;-71
2023/04/24 02:18:30;;;;;;;20.40;16.70;;;;;;;9.54;83.74;97944.17;109420;1250;59119;-71
2023/04/24 02:20:56;;;;;;;18.30;16.30;;;;;;;9.51;84.12;97945.90;109594;1251;58938;-71
2023/04/24 02:23:23;;;;;;;17.20;15.40;;;;;;;9.48;84.42;97942.23;109613;1251;59977;-71
2023/04/24 02:25:49;;;;;;;19.20;15.90;;;;;;;9.45;84.65;97940.48;109585;1251;59825;-71
2023/04/24 02:28:16;;;;;;;17.90;15.70;;;;;;;9.44;84.63;97938.98;109427;1257;59023;-71
2023/04/24 02:30:42;;;;;;;20.00;16.30;;;;;;;9.42;84.54;97934.52;109525;1251;59040;-71
2023/04/24 02:33:09;;;;;;;17.50;15.70;;;;;;;9.40;84.80;97934.70;109553;1251;58959;-71
2023/04/24 02:35:36;;;;;;;18.30;16.40;;;;;;;9.38;84.91;97931.29;109592;1251;60186;-71
2023/04/24 02:38:03;;;;;;;18.60;15.40;;;;;;;9.38;84.86;97927.22;109359;1251;59205;-72
2023/04/24 02:40:29;;;;;;;16.90;15.10;;;;;;;9.38;84.80;97924.59;109557;1250;58910;-72
2023/04/24 02:42:56;;;;;;;16.60;14.80;;;;;;;9.37;84.86;97925.00;109589;1254;59030;-71
2023/04/24 02:45:23;;;;;;;19.30;16.30;;;;;;;9.35;85.02;97925.33;109621;1251;66963;-71
2023/04/24 02:47:49;;;;;;;19.60;15.20;;;;;;;9.34;84.96;97924.55;109598;1250;60163;-71
2023/04/24 02:50:16;;;;;;;19.80;16.50;;;;;;;9.31;85.04;97928.64;109610;1251;64106;-71
2023/04/24 02:52:42;;;;;;;17.30;15.60;;;;;;;9.28;85.07;97928.17;109268;1251;58971;-71
2023/04/24 02:55:09;;;;;;;16.60;14.90;;;;;;;9.26;85.20;97924.96;109605;1250;58987;-71
2023/04/24 02:57:35;;;;;;;18.10;15.20;;;;;;;9.23;85.05;97926.42;109559;1251;72636;-71
2023/04/24 03:00:03;;;;;;;18.10;15.50;;;;;;;9.19;85.24;97922.52;109566;1254;59005;-71
2023/04/24 03:02:29;;;;;;;18.40;15.30;;;;;;;9.17;85.19;97925.33;109584;1251;64064;-71
2023/04/24 03:04:56;;;;;;;18.00;14.80;;;;;;;9.15;85.36;97925.11;109155;1252;59020;-71
2023/04/24 03:07:23;;;;;;;16.30;14.70;;;;;;;9.15;85.45;97925.63;109372;1254;59100;-71
2023/04/24 03:09:50;;;;;;;17.30;13.50;;;;;;;9.17;85.35;97920.02;109479;1252;66041;-71
2023/04/24 03:12:17;;;;;;;15.70;13.10;;;;;;;9.17;85.14;97921.95;109498;1254;59324;-71
2023/04/24 03:14:44;;;;;;;13.00;11.70;;;;;;;9.20;85.03;97926.02;109469;1252;64052;-71
2023/04/24 03:17:10;;;;;;;16.30;13.30;;;;;;;9.26;84.68;97927.68;109445;1254;59035;-71
2023/04/24 03:19:37;;;;;;;17.30;12.60;;;;;;;9.31;84.30;97925.86;109206;1253;59285;-71
2023/04/24 03:22:03;;;;;;;15.30;11.60;;;;;;;9.37;84.02;97927.52;109483;1253;58939;-71
2023/04/24 03:24:30;;;;;;;13.20;11.80;;;;;;;9.41;83.67;97926.46;109457;1252;58902;-71
2023/04/24 03:26:57;;;;;;;14.10;12.10;;;;;;;9.46;83.47;97924.11;109480;1253;64156;-71
2023/04/24 03:29:23;;;;;;;14.10;12.20;;;;;;;9.50;83.21;97922.39;109239;1252;59067;-71
2023/04/24 03:31:50;;;;;;;13.90;11.90;;;;;;;9.53;83.04;97922.30;109484;1252;59082;-72
2023/04/24 03:34:16;;;;;;;13.00;11.70;;;;;;;9.57;82.70;97923.02;109440;1253;59181;-71
2023/04/24 03:36:43;;;;;;;16.20;11.70;;;;;;;9.60;82.48;97921.55;109486;1254;60301;-70
2023/04/24 03:39:10;;;;;;;14.50;12.40;;;;;;;9.65;82.27;97923.66;109475;1253;62865;-70
2023/04/24 03:41:36;;;;;;;13.00;11.70;;;;;;;9.68;82.10;97926.25;109494;1252;58955;-73
2023/04/24 03:44:02;;;;;;;13.70;11.40;;;;;;;9.70;82.04;97922.01;109534;1253;58931;-70
2023/04/24 03:46:29;;;;;;;13.10;11.50;;;;;;;9.71;81.79;97920.56;109460;1252;58994;-71
2023/04/24 03:48:56;;;;;;;12.80;11.30;;;;;;;9.73;81.75;97919.12;109475;1254;59333;-71
2023/04/24 03:51:22;;;;;;;17.50;11.40;;;;;;;9.78;81.48;97920.34;109297;1252;62649;-71
2023/04/24 03:53:49;;;;;;;14.30;12.10;;;;;;;9.84;81.32;97919.08;109468;1253;59006;-71
2023/04/24 03:56:16;;;;;;;12.90;11.10;;;;;;;9.91;81.12;97922.09;109445;1252;59338;-71
2023/04/24 03:58:42;;;;;;;14.30;11.80;;;;;;;9.98;80.85;97921.20;109433;1252;66025;-71
2023/04/24 04:01:10;;;;;;;12.20;10.50;;;;;;;10.18;80.34;97922.52;109406;1253;60210;-71
2023/04/24 04:03:36;;;;;;;12.70;11.00;;;;;;;10.73;79.13;97920.13;109476;1252;64149;-71
2023/04/24 04:06:03;;;;;;;16.30;12.60;;;;;;;11.29;77.66;97914.89;109483;1252;59050;-73
2023/04/24 04:08:30;;;;;;;13.70;12.00;;;;;;;11.80;76.52;97915.80;109512;1253;59055;-72
2023/04/24 04:10:56;;;;;;;12.80;11.10;;;;;;;12.26;75.00;97911.33;109476;1253;66036;-71
2023/04/24 04:13:23;;;;;;;12.40;11.10;;;;;;;12.69;73.83;97910.42;109520;1253;59141;-72
2023/04/24 04:15:50;;;;;;;12.60;11.30;;;;;;;13.10;72.33;97912.92;109410;1251;59808;-71
2023/04/24 04:18:16;;;;;;;14.40;11.70;;;;;;;13.47;70.83;97907.52;109439;1252;59048;-71
2023/04/24 04:20:43;;;;;;;12.40;11.10;;;;;;;13.81;69.04;97910.29;109471;1252;58875;-71
2023/04/24 04:23:09;;;;;;;12.90;11.00;;;;;;;14.07;68.15;97913.79;109444;1253;66039;-71
2023/04/24 04:25:36;;;;;;;11.40;10.10;;;;;;;14.33;67.38;97910.67;109430;1254;58981;-71
2023/04/24 04:28:03;;;;;;;11.70;10.70;;;;;;;14.53;65.97;97909.04;109316;1253;59148;-72
2023/04/24 04:30:32;;;;;;;13.80;10.80;;;;;;;14.66;64.59;97910.63;109512;1252;58994;-72
2023/04/24 04:32:59;;;;;;;12.40;11.10;;;;;;;14.72;64.45;97908.44;109450;1254;59041;-72
2023/04/24 04:35:25;;;;;;;11.80;10.70;;;;;;;14.90;63.97;97906.52;109469;1254;64999;-72
2023/04/24 04:37:52;;;;;;;12.20;10.60;;;;;;;15.10;63.04;97904.34;109189;1253;60176;-72
2023/04/24 04:40:19;;;;;;;12.30;10.80;;;;;;;15.29;62.72;97906.90;109432;1253;64122;-72
2023/04/24 04:42:45;;;;;;;11.10;9.60;;;;;;;15.49;62.19;97902.81;109257;1252;59003;-72
2023/04/24 04:45:12;;;;;;;11.00;9.70;;;;;;;15.78;60.65;97901.22;109478;1253;58952;-72
2023/04/24 04:47:39;;;;;;;11.10;9.90;;;;;;;16.00;60.51;97901.96;109471;1251;66138;-72
2023/04/24 04:50:06;;;;;;;11.40;10.10;;;;;;;16.27;59.61;97900.43;109483;1253;59138;-72
2023/04/24 04:52:32;;;;;;;12.30;10.30;;;;;;;16.56;58.86;97898.00;109426;1252;64239;-72
2023/04/24 04:54:59;;;;;;;12.20;9.90;;;;;;;16.82;58.02;97899.05;109415;1253;59011;-72
2023/04/24 04:57:25;;;;;;;9.80;8.80;;;;;;;17.07;57.34;97900.95;109489;1252;59118;-72
2023/04/24 05:00:01;;;;;;;11.60;9.80;;;;;;;17.26;56.71;97897.54;109479;1252;64493;-72
2023/04/24 05:02:28;;;;;;;11.20;9.80;;;;;;;17.48;56.35;97895.36;109496;1253;60171;-73
2023/04/24 05:04:55;;;;;;;10.90;8.60;;;;;;;17.73;55.75;97898.46;109479;1253;64076;-72
2023/04/24 05:07:22;;;;;;;10.10;9.10;;;;;;;17.89;55.03;97900.23;109446;1253;59001;-72
2023/04/24 05:09:48;;;;;;;12.20;9.90;;;;;;;18.04;54.57;97894.64;109465;1253;58969;-72
2023/04/24 05:12:15;;;;;;;11.60;9.40;;;;;;;18.25;54.42;97897.54;109471;1253;66106;-73
2023/04/24 05:14:41;;;;;;;10.50;9.10;;;;;;;18.50;54.00;97895.13;109470;1252;58849;-72
2023/04/24 05:17:08;;;;;;;10.70;8.90;;;;;;;18.72;53.18;97898.02;109361;1252;64063;-72
2023/04/24 05:19:37;;;;;;;10.50;9.60;;;;;;;18.89;52.39;97896.09;109455;1252;58962;-72
2023/04/24 05:22:06;;;;;;;9.80;9.00;;;;;;;19.04;51.71;97896.24;109427;1252;58970;-72
2023/04/24 05:24:34;;;;;;;12.50;8.70;;;;;;;19.14;51.23;97890.55;109463;1252;66000;-72
2023/04/24 05:27:02;;;;;;;9.10;8.10;;;;;;;19.28;50.80;97893.16;109451;1252;60127;-72
2023/04/24 05:29:30;;;;;;;8.80;8.00;;;;;;;19.43;50.28;97886.08;109452;1252;64057;-72
2023/04/24 05:31:57;;;;;;;9.50;8.50;;;;;;;19.55;49.68;97886.52;109179;1253;58981;-72
2023/04/24 05:34:24;;;;;;;10.30;8.30;;;;;;;19.64;49.27;97888.06;109507;1252;58974;-72
2023/04/24 05:36:51;;;;;;;10.40;8.00;;;;;;;19.69;48.92;97890.27;109458;1252;59600;-72
2023/04/24 05:39:17;;;;;;;9.40;8.40;;;;;;;19.77;48.66;97887.25;109411;1252;60051;-72
2023/04/24 05:41:44;;;;;;;9.30;8.40;;;;;;;19.86;48.59;97886.66;109195;1253;64105;-72
2023/04/24 05:44:10;;;;;;;8.40;7.70;;;;;;;20.02;48.03;97886.52;109441;1252;59023;-70
2023/04/24 05:46:37;;;;;;;9.40;8.10;;;;;;;19.99;47.32;97886.34;109348;1252;59048;-71
2023/04/24 05:49:03;;;;;;;8.80;7.70;;;;;;;19.90;47.53;97888.01;109409;1253;59022;-71
2023/04/24 05:51:31;;;;;;;8.20;7.40;;;;;;;19.92;47.53;97890.58;109480;1253;59000;-72
2023/04/24 05:53:58;;;;;;;9.60;7.40;;;;;;;20.03;47.47;97888.04;109468;1252;64028;-71
2023/04/24 05:56:24;;;;;;;8.90;7.80;;;;;;;20.01;47.38;97883.70;109470;1252;58939;-72
2023/04/24 05:58:51;;;;;;;9.90;7.40;;;;;;;19.97;47.16;97885.30;109496;1252;59111;-72
2023/04/24 06:01:18;;;;;;;8.90;8.10;;;;;;;19.90;47.33;97883.46;109515;1252;66110;-72
2023/04/24 06:03:44;;;;;;;8.80;7.50;;;;;;;19.85;47.08;97878.70;109185;1252;60189;-72
2023/04/24 06:06:11;;;;;;;8.10;7.40;;;;;;;19.96;47.15;97876.42;109413;1253;63085;-71
2023/04/24 06:08:38;;;;;;;7.70;6.90;;;;;;;20.12;46.54;97875.40;109432;1252;58980;-71
2023/04/24 06:11:04;;;;;;;8.30;7.50;;;;;;;20.08;46.08;97877.48;109499;1252;58966;-72
2023/04/24 06:13:31;;;;;;;10.60;7.80;;;;;;;20.04;46.35;97875.03;109169;1252;59030;-72
2023/04/24 06:15:57;;;;;;;10.80;7.60;;;;;;;20.03;46.31;97871.95;109507;1251;58934;-71
2023/04/24 06:18:24;;;;;;;8.40;7.60;;;;;;;20.02;46.33;97869.85;109433;1252;59093;-71
2023/04/24 06:20:51;;;;;;;8.20;7.40;;;;;;;19.96;46.06;97873.02;109432;1252;58983;-72
2023/04/24 06:23:18;;;;;;;10.70;7.80;;;;;;;19.77;46.00;97870.67;109490;1252;58928;-71
2023/04/24 06:25:44;;;;;;;9.90;8.40;;;;;;;19.62;46.18;97869.28;109500;1252;64777;-71
2023/04/24 06:28:11;;;;;;;10.50;8.00;;;;;;;19.66;46.46;97868.15;109495;1253;58977;-72
2023/04/24 06:30:37;;;;;;;12.40;8.80;;;;;;;19.72;46.17;97865.61;109455;1252;64121;-71
2023/04/24 06:33:04;;;;;;;10.60;8.80;;;;;;;19.75;46.41;97862.77;109480;1251;59031;-71
2023/04/24 06:35:30;;;;;;;8.90;7.70;;;;;;;19.81;46.22;97858.91;109480;1252;58992;-71
2023/04/24 06:37:57;;;;;;;8.90;8.00;;;;;;;19.93;46.26;97852.98;109492;1252;73875;-71
2023/04/24 06:40:24;;;;;;;10.80;7.90;;;;;;;20.01;46.07;97851.78;109447;1251;59320;-71
2023/04/24 06:42:50;;;;;;;10.10;8.70;;;;;;;20.05;45.84;97847.48;109486;1252;64055;-71
2023/04/24 06:45:17;;;;;;;9.00;7.70;;;;;;;20.09;45.95;97846.25;109439;1251;59425;-71
2023/04/24 06:47:43;;;;;;;9.10;7.60;;;;;;;20.12;45.65;97845.41;109471;1252;59501;-72
2023/04/24 06:50:11;;;;;;;9.60;8.10;;;;;;;20.05;45.69;97846.40;109210;1252;59900;-71
2023/04/24 06:52:37;;;;;;;8.30;7.00;;;;;;;19.91;45.85;97846.95;109494;1252;59856;-71
2023/04/24 06:55:04;;;;;;;7.50;6.80;;;;;;;19.67;45.95;97849.69;109462;1251;59054;-71
2023/04/24 06:57:31;;;;;;;8.20;7.20;;;;;;;19.51;46.37;97847.55;109490;1251;58978;-71
2023/04/24 06:59:58;;;;;;;7.20;6.50;;;;;;;19.50;46.55;97846.72;109197;1251;59447;-71
2023/04/24 07:02:25;;;;;;;8.30;7.40;;;;;;;19.45;46.36;97846.97;109537;1252;66147;-71
2023/04/24 07:04:52;;;;;;;7.90;7.10;;;;;;;19.35;46.54;97847.45;109457;1253;60236;-71
2023/04/24 07:07:19;;;;;;;8.60;7.10;;;;;;;19.29;46.70;97843.02;109458;1251;64066;-71
2023/04/24 07:09:45;;;;;;;8.00;7.20;;;;;;;19.22;46.72;97839.46;109453;1252;59237;-71
2023/04/24 07:12:12;;;;;;;8.00;7.20;;;;;;;19.14;46.88;97836.49;109341;1253;59131;-72
2023/04/24 07:14:39;;;;;;;9.20;6.40;;;;;;;19.16;46.81;97835.77;109453;1252;65034;-72
2023/04/24 07:17:06;;;;;;;9.20;6.90;;;;;;;19.18;46.65;97834.63;109144;1252;60101;-72
2023/04/24 07:19:35;;;;;;;10.40;7.40;;;;;;;19.19;46.39;97838.93;109451;1252;64056;-71
2023/04/24 07:22:03;;;;;;;7.30;6.40;;;;;;;19.20;46.25;97834.20;109433;1252;59315;-71
2023/04/24 07:24:32;;;;;;;7.10;6.30;;;;;;;19.28;46.38;97830.66;109179;1253;59143;-71
2023/04/24 07:26:59;;;;;;;7.50;6.30;;;;;;;19.38;45.93;97832.88;109477;1252;66042;-71
2023/04/24 07:29:25;;;;;;;6.60;6.00;;;;;;;19.37;45.16;97832.64;109490;1252;59237;-71
2023/04/24 07:31:52;;;;;;;6.70;6.20;;;;;;;19.36;45.13;97829.14;109477;1252;59133;-72
2023/04/24 07:34:18;;;;;;;7.20;6.50;;;;;;;19.45;45.48;97833.45;109454;1253;59016;-71
2023/04/24 07:36:45;;;;;;;6.40;5.10;;;;;;;19.52;44.96;97831.48;109514;1252;59247;-71
2023/04/24 07:39:12;;;;;;;4.90;4.50;;;;;;;19.52;44.20;97828.31;109480;1251;66700;-71
2023/04/24 07:41:38;;;;;;;7.50;6.20;;;;;;;19.60;44.17;97826.96;109479;1252;59133;-71
2023/04/24 07:44:05;;;;;;;6.30;5.30;;;;;;;19.75;43.48;97820.40;109514;1251;59550;-71
2023/04/24 07:46:33;;;;;;;9.50;6.50;;;;;;;19.91;42.77;97817.13;109434;1251;59396;-71
2023/04/24 07:49:01;;;;;;;7.40;5.80;;;;;;;20.12;42.61;97814.60;109490;1251;58971;-71
2023/04/24 07:51:27;;;;;;;5.20;4.80;;;;;;;20.26;42.44;97809.98;109420;1253;64870;-71
2023/04/24 07:53:56;;;;;;;7.30;6.00;;;;;;;20.38;42.32;97811.40;109486;1252;60150;-71
2023/04/24 07:56:23;;;;;;;5.50;4.40;;;;;;;20.50;41.88;97812.10;109476;1251;64324;-71
2023/04/24 07:58:49;;;;;;;5.80;4.80;;;;;;;20.54;41.47;97811.95;109289;1251;59008;-71
2023/04/24 08:01:16;;;;;;;5.20;4.70;;;;;;;20.58;41.47;97807.48;109476;1251;59056;-71
2023/04/24 08:03:42;;;;;;;5.70;4.90;;;;;;;20.68;41.28;97803.73;109468;1252;66013;-71
2023/04/24 08:06:09;;;;;;;4.30;3.90;;;;;;;20.86;41.17;97798.37;109470;1251;59116;-71
2023/04/24 08:08:35;;;;;;;5.90;3.90;;;;;;;21.07;40.64;97794.72;109485;1252;64091;-72
2023/04/24 08:11:02;;;;;;;4.40;4.00;;;;;;;21.25;40.35;97793.48;109459;1252;59037;-71
2023/04/24 08:13:28;;;;;;;4.30;3.90;;;;;;;21.39;40.00;97791.41;109496;1252;58896;-72
2023/04/24 08:15:56;;;;;;;4.10;3.70;;;;;;;21.51;39.60;97794.77;109500;1252;59493;-72
2023/04/24 08:18:22;;;;;;;5.20;3.90;;;;;;;21.66;39.14;97791.91;109488;1252;59074;-72
2023/04/24 08:20:49;;;;;;;4.30;3.90;;;;;;;21.71;38.74;97790.34;109431;1251;62815;-72
2023/04/24 08:23:15;;;;;;;4.70;4.30;;;;;;;21.76;38.77;97788.95;109451;1252;59025;-71
2023/04/24 08:25:42;;;;;;;4.20;3.80;;;;;;;21.89;38.84;97787.54;109461;1251;59059;-72
2023/04/24 08:28:09;;;;;;;4.70;4.10;;;;;;;21.97;38.38;97784.24;109437;1252;59005;-71
2023/04/24 08:30:35;;;;;;;4.50;4.10;;;;;;;22.00;38.05;97785.60;109472;1251;59028;-72
2023/04/24 08:33:02;;;;;;;5.40;4.00;;;;;;;22.04;38.23;97788.23;109463;1252;59067;-72
2023/04/24 08:35:28;;;;;;;4.40;3.70;;;;;;;22.15;38.14;97783.48;109482;1252;58996;-72
2023/04/24 08:37:55;;;;;;;5.00;3.70;;;;;;;22.22;37.78;97783.66;109489;1252;59026;-72
2023/04/24 08:40:28;;;;;;;4.80;4.30;;;;;;;22.27;37.45;97782.73;109470;1252;58986;-72
2023/04/24 08:42:56;;;;;;;6.10;4.10;;;;;;;22.28;36.91;97779.28;109460;1252;60123;-72
2023/04/24 08:45:23;;;;;;;5.20;4.70;;;;;;;22.32;36.58;97779.41;109498;1252;65283;-71
2023/04/24 08:47:53;;;;;;;5.70;5.10;;;;;;;22.30;36.19;97782.13;109453;1251;58946;-71
2023/04/24 08:50:20;;;;;;;7.30;5.00;;;;;;;22.34;36.56;97779.28;109492;1252;59009;-73
2023/04/24 08:52:50;;;;;;;5.50;4.20;;;;;;;22.50;36.83;97779.13;109489;1251;65021;-72
2023/04/24 08:55:18;;;;;;;5.40;4.20;;;;;;;22.63;36.60;97778.91;109483;1252;59262;-71
2023/04/24 08:57:49;;;;;;;5.30;4.50;;;;;;;22.77;36.29;97772.30;109478;1252;64040;-71
2023/04/24 09:00:16;;;;;;;5.10;4.00;;;;;;;23.01;36.24;97771.20;109408;1251;58992;-73
2023/04/24 09:02:44;;;;;;;4.20;3.90;;;;;;;23.23;36.04;97769.44;109480;1252;58898;-72
2023/04/24 09:05:13;;;;;;;5.00;4.20;;;;;;;23.39;35.47;97770.85;109461;1251;65821;-72
2023/04/24 09:07:44;;;;;;;8.20;5.40;;;;;;;23.48;35.29;97770.82;109473;1252;60152;-72
2023/04/24 09:10:11;;;;;;;6.20;4.60;;;;;;;23.57;35.50;97768.77;109447;1252;64077;-72
2023/04/24 09:12:38;;;;;;;4.00;3.60;;;;;;;23.78;35.97;97766.60;109414;1251;59228;-72
2023/04/24 09:15:06;;;;;;;3.80;3.50;;;;;;;24.05;36.37;97766.79;109466;1252;58984;-72
2023/04/24 09:17:34;;;;;;;5.50;4.10;;;;;;;24.25;36.25;97762.85;109129;1252;65960;-72
2023/04/24 09:20:01;;;;;;;4.70;4.20;;;;;;;24.42;35.97;97761.27;109360;1252;166664;-72
2023/04/24 09:22:32;;;;;;;5.10;4.50;;;;;;;24.49;35.54;97758.71;109463;1252;63816;-72
2023/04/24 09:25:07;;;;;;;6.60;4.70;;;;;;;24.50;35.40;97754.64;109445;1252;59015;-72
2023/04/24 09:27:34;;;;;;;5.30;4.20;;;;;;;24.64;35.49;97755.45;109494;1252;58934;-72
2023/04/24 09:30:02;;;;;;;5.60;4.70;;;;;;;24.69;35.53;97754.52;109485;1252;66071;-71
2023/04/24 09:32:29;;;;;;;4.60;3.90;;;;;;;24.62;35.33;97749.35;109200;1255;60318;-71
2023/04/24 09:35:13;;;;;;;5.20;4.60;;;;;;;24.64;35.62;97749.66;109211;1255;64001;-71
2023/04/24 09:37:45;;;;;;;5.70;5.10;;;;;;;24.61;34.49;97750.73;109172;1255;59221;-72
2023/04/24 09:40:16;;;;;;;5.10;4.40;;;;;;;24.47;34.24;97745.86;109255;1255;59041;-71
2023/04/24 09:42:54;;;;;;;4.60;4.20;;;;;;;24.46;34.36;97741.85;109255;1254;66050;-71
2023/04/24 09:45:21;;;;;;;6.00;4.20;;;;;;;24.55;34.32;97739.15;109240;1255;60202;-72
2023/04/24 09:47:53;;;;;;;5.00;4.30;;;;;;;24.66;34.49;97736.19;109248;1255;64525;-71
2023/04/24 09:50:20;;;;;;;6.60;4.70;;;;;;;24.84;34.04;97729.27;109214;1255;59370;-71
2023/04/24 09:52:56;;;;;;;4.60;3.90;;;;;;;24.99;34.17;97724.16;109246;1255;59064;-71
2023/04/24 09:55:22;;;;;;;5.20;4.00;;;;;;;25.19;33.75;97726.77;109275;1255;65286;-72
2023/04/24 09:57:54;;;;;;;6.80;4.20;;;;;;;25.06;33.64;97727.61;109256;1255;60128;-72
2023/04/24 10:00:32;;;;;;;5.50;4.60;;;;;;;25.02;34.25;97725.02;109093;1256;62840;-72
2023/04/24 10:03:00;;;;;;;6.80;4.30;;;;;;;24.98;33.90;97723.91;109159;1253;59079;-72
2023/04/24 10:05:32;;;;;;;4.40;4.00;;;;;;;24.81;33.78;97724.81;109499;1251;59021;-70
2023/04/24 10:08:04;;;;;;;5.20;4.10;;;;;;;24.64;34.37;97728.16;109465;1251;65566;-71
2023/04/24 10:10:33;;;;;;;4.70;4.40;;;;;;;24.43;34.52;97732.90;109275;1251;60240;-72
2023/04/24 10:13:01;;;;;;;4.30;3.90;;;;;;;24.08;34.65;97737.20;109477;1251;64050;-71
2023/04/24 10:15:27;;;;;;;5.70;4.10;;;;;;;23.68;34.54;97740.90;109469;1252;59046;-71
2023/04/24 10:17:54;;;;;;;6.60;5.90;;;;;;;23.29;34.86;97739.81;109216;1251;58996;-72
2023/04/24 10:20:24;;;;;;;7.10;4.90;;;;;;;22.91;35.35;97740.70;109480;1252;66156;-72
2023/04/24 10:22:52;;;;;;;7.70;5.10;;;;;;;22.58;35.74;97743.27;109210;1252;60180;-71
2023/04/24 10:25:21;;;;;;;8.70;5.60;;;;;;;22.33;36.35;97746.38;109463;1252;64014;-72
2023/04/24 10:27:49;;;;;;;6.30;5.50;;;;;;;22.08;36.21;97747.20;109485;1252;59262;-71
2023/04/24 10:30:17;;;;;;;7.20;5.80;;;;;;;21.82;36.43;97751.36;109467;1252;59005;-72
2023/04/24 10:32:44;;;;;;;7.00;6.30;;;;;;;21.69;36.95;97751.54;109465;1252;66014;-71
2023/04/24 10:35:15;;;;;;;7.60;5.10;;;;;;;21.62;37.08;97747.60;109465;1253;60176;-71
2023/04/24 10:37:45;;;;;;;6.80;5.00;;;;;;;21.62;37.47;97747.43;109164;1252;64620;-71
2023/04/24 10:40:15;;;;;;;;;;;;;;;21.75;37.64;97748.92;109418;1252;59037;-71
2023/04/24 10:42:45;;;;;;;4.80;4.10;;;;;;;21.85;37.64;97750.84;109409;1251;59731;-71
2023/04/24 10:45:21;;;;;;;6.40;4.50;;;;;;;21.93;37.21;97750.34;109446;1253;66021;-71
2023/04/24 10:47:53;;;;;;;4.50;4.10;;;;;;;22.09;37.27;97750.25;109482;1252;59924;-71
2023/04/24 10:50:19;;;;;;;6.40;4.80;;;;;;;22.29;36.98;97744.41;109437;1252;64099;-71
2023/04/24 10:52:51;;;;;;;6.30;5.50;;;;;;;22.45;37.58;97740.94;109449;1253;58952;-71
2023/04/24 10:55:47;;;;;;;7.90;5.40;;;;;;;22.70;37.99;97740.89;109478;1251;58913;-70
2023/04/24 10:58:16;;;;;;;5.30;4.80;;;;;;;23.08;38.02;97734.14;109465;1252;65886;-71
2023/04/24 11:00:46;;;;;;;4.90;4.40;;;;;;;23.45;37.75;97731.89;109509;1252;59297;-72
2023/04/24 11:03:24;;;;;;;6.70;5.10;;;;;;;23.72;37.39;97732.82;109301;1251;64143;-72
2023/04/24 11:06:07;;;;;;;5.20;4.50;;;;;;;23.94;36.63;97733.91;109482;1252;59056;-72
2023/04/24 11:08:45;;;;;;;5.70;4.40;;;;;;;23.98;36.14;97736.23;109468;1252;59618;-71
2023/04/24 11:11:14;;;;;;;5.10;4.60;;;;;;;24.00;36.06;97737.94;109485;1252;65879;-71
2023/04/24 11:13:56;;;;;;;4.80;4.00;;;;;;;24.00;36.06;97734.59;109483;1251;60140;-71
2023/04/24 11:16:29;;;;;;;4.90;4.40;;;;;;;24.00;36.02;97736.76;109459;1253;63769;-71
2023/04/24 11:19:16;;;;;;;7.50;4.20;;;;;;;23.87;36.22;97744.59;109462;1252;59046;-72
2023/04/24 11:22:03;;;;;;;5.20;4.00;;;;;;;23.64;36.31;97749.66;109495;1252;59058;-72